Time;durP1;ratioP1;P1;durP2;ratioP2;P2;SDS_P1;SDS_P2;PMS_P1;PMS_P2;Temp;Humidity;BMP_temperature;BMP_pressure;BME280_temperature;BME280_humidity;BME280_pressure;Samples;Min_cycle;Max_cycle;Signal;HPM_P1;HPM_P2
2023/08/26 00:00:41;;;;;;;4.18;1.70;;;;;;;;;;5036976;28;20448;-73
2023/08/26 00:03:08;;;;;;;2.83;1.17;;;;;;;;;;5035685;28;20444;-73
2023/08/26 00:05:35;;;;;;;2.60;1.30;;;;;;;;;;5033158;28;20487;-73
2023/08/26 00:08:03;;;;;;;1.00;1.00;;;;;;;;;;5032748;28;20525;-74
2023/08/26 00:10:30;;;;;;;1.30;1.20;;;;;;;;;;5033314;28;20437;-73
2023/08/26 00:12:57;;;;;;;2.42;1.20;;;;;;;;;;5035214;28;20610;-71
2023/08/26 00:15:24;;;;;;;1.77;1.30;;;;;;;;;;5035334;28;20474;-72
2023/08/26 00:17:51;;;;;;;1.70;0.90;;;;;;;;;;5014307;28;20437;-72
2023/08/26 00:20:21;;;;;;;1.25;1.08;;;;;;;;;;5032539;28;20475;-73
2023/08/26 00:22:48;;;;;;;3.25;1.20;;;;;;;;;;5031944;28;20439;-72
2023/08/26 00:25:15;;;;;;;1.75;1.23;;;;;;;;;;5032134;28;20487;-72
2023/08/26 00:27:43;;;;;;;2.23;1.00;;;;;;;;;;5049119;28;20530;-72
2023/08/26 00:30:10;;;;;;;3.13;1.20;;;;;;;;;;5032701;28;20608;-72
2023/08/26 00:32:37;;;;;;;3.05;1.20;;;;;;;;;;5031256;28;21470;-72
2023/08/26 00:35:05;;;;;;;0.90;0.90;;;;;;;;;;5026175;28;20519;-71
2023/08/26 00:37:32;;;;;;;1.13;0.90;;;;;;;;;;5031929;28;20453;-72
2023/08/26 00:39:59;;;;;;;1.85;0.82;;;;;;;;;;5034090;28;20502;-72
2023/08/26 00:42:26;;;;;;;1.65;0.80;;;;;;;;;;5032348;28;20986;-71
2023/08/26 00:44:53;;;;;;;1.50;0.70;;;;;;;;;;5037482;28;20432;-71
2023/08/26 00:47:22;;;;;;;1.45;0.70;;;;;;;;;;5033100;28;20847;-72
2023/08/26 00:49:51;;;;;;;1.73;0.70;;;;;;;;;;5033917;28;21174;-71
2023/08/26 00:52:18;;;;;;;1.10;0.80;;;;;;;;;;5033311;28;20487;-71
2023/08/26 00:54:48;;;;;;;1.30;0.90;;;;;;;;;;5029143;28;20429;-72
2023/08/26 00:57:15;;;;;;;3.35;1.20;;;;;;;;;;5031192;28;20554;-71
2023/08/26 00:59:43;;;;;;;2.53;0.93;;;;;;;;;;5027964;28;20431;-71
2023/08/26 01:02:10;;;;;;;3.37;0.93;;;;;;;;;;5032255;28;20902;-72
2023/08/26 01:04:37;;;;;;;2.20;1.20;;;;;;;;;;5010168;28;20575;-72
2023/08/26 01:07:04;;;;;;;6.20;1.20;;;;;;;;;;5031415;28;20539;-71
2023/08/26 01:09:32;;;;;;;2.80;1.20;;;;;;;;;;5030243;28;20477;-72
2023/08/26 01:12:07;;;;;;;0.98;0.90;;;;;;;;;;5032376;28;20886;-71
2023/08/26 01:14:36;;;;;;;2.35;1.20;;;;;;;;;;5033650;28;20821;-71
2023/08/26 01:17:07;;;;;;;1.85;1.40;;;;;;;;;;5031516;28;20451;-70
2023/08/26 01:19:34;;;;;;;4.57;1.30;;;;;;;;;;5031978;28;20427;-70
2023/08/26 01:22:02;;;;;;;2.78;1.40;;;;;;;;;;5027515;28;20433;-70
2023/08/26 01:24:30;;;;;;;1.90;1.70;;;;;;;;;;5031122;28;21858;-70
2023/08/26 01:26:57;;;;;;;2.97;1.60;;;;;;;;;;5031819;28;20425;-69
2023/08/26 01:29:25;;;;;;;2.78;1.70;;;;;;;;;;5032092;28;20437;-70
2023/08/26 01:32:16;;;;;;;3.78;1.70;;;;;;;;;;5031097;28;20525;-70
2023/08/26 01:34:47;;;;;;;3.00;1.75;;;;;;;;;;5033897;28;20990;-70
2023/08/26 01:37:15;;;;;;;2.88;1.85;;;;;;;;;;5033136;28;20449;-69
2023/08/26 01:39:42;;;;;;;2.53;1.80;;;;;;;;;;5032354;28;20441;-69
2023/08/26 01:42:10;;;;;;;4.32;1.85;;;;;;;;;;5031559;28;20445;-69
2023/08/26 01:44:37;;;;;;;2.65;2.10;;;;;;;;;;5032643;28;20441;-69
2023/08/26 01:47:05;;;;;;;2.85;1.98;;;;;;;;;;5031869;28;20448;-69
2023/08/26 01:49:35;;;;;;;6.00;1.70;;;;;;;;;;5029319;28;20441;-69
2023/08/26 01:52:02;;;;;;;2.42;2.10;;;;;;;;;;5030006;28;20429;-69
2023/08/26 01:54:29;;;;;;;4.60;2.47;;;;;;;;;;5031973;28;20444;-69
2023/08/26 01:56:56;;;;;;;4.28;2.63;;;;;;;;;;5030804;28;20429;-69
2023/08/26 01:59:23;;;;;;;4.43;2.33;;;;;;;;;;5034451;28;20979;-69
2023/08/26 02:01:51;;;;;;;6.78;3.00;;;;;;;;;;5028081;28;20563;-69
2023/08/26 02:04:18;;;;;;;5.57;2.95;;;;;;;;;;5032250;28;20998;-69
2023/08/26 02:06:45;;;;;;;4.35;3.00;;;;;;;;;;5030427;28;20463;-69
2023/08/26 02:09:12;;;;;;;5.07;3.40;;;;;;;;;;5030118;28;20519;-69
2023/08/26 02:11:41;;;;;;;4.57;3.60;;;;;;;;;;5030966;28;20543;-69
2023/08/26 02:14:09;;;;;;;7.13;4.13;;;;;;;;;;5030891;28;20547;-69
2023/08/26 02:16:36;;;;;;;6.65;4.32;;;;;;;;;;5031690;28;20482;-68
2023/08/26 02:19:04;;;;;;;7.07;4.22;;;;;;;;;;5031640;28;20437;-68
2023/08/26 02:21:31;;;;;;;6.35;4.45;;;;;;;;;;5030879;28;20575;-68
2023/08/26 02:23:58;;;;;;;8.70;4.37;;;;;;;;;;5025066;28;20483;-68
2023/08/26 02:26:27;;;;;;;7.80;4.72;;;;;;;;;;5031537;28;20498;-68
2023/08/26 02:28:54;;;;;;;6.93;4.95;;;;;;;;;;5029119;28;20433;-69
2023/08/26 02:31:21;;;;;;;8.40;5.40;;;;;;;;;;5029854;28;20966;-68
2023/08/26 02:33:48;;;;;;;7.97;4.80;;;;;;;;;;5028320;28;20444;-68
2023/08/26 02:36:16;;;;;;;8.50;4.97;;;;;;;;;;5033121;28;20433;-68
2023/08/26 02:38:43;;;;;;;7.73;5.40;;;;;;;;;;5030004;28;20960;-68
2023/08/26 02:41:10;;;;;;;6.82;5.30;;;;;;;;;;5027619;28;20441;-68
2023/08/26 02:43:40;;;;;;;8.15;5.40;;;;;;;;;;5032675;28;20433;-67
2023/08/26 02:46:07;;;;;;;7.53;5.68;;;;;;;;;;5028220;28;21028;-67
2023/08/26 02:48:34;;;;;;;6.70;5.70;;;;;;;;;;5030728;28;20433;-68
2023/08/26 02:51:02;;;;;;;9.03;6.00;;;;;;;;;;5029138;28;20950;-67
2023/08/26 02:53:33;;;;;;;7.35;6.20;;;;;;;;;;5029079;28;20495;-67
2023/08/26 02:56:00;;;;;;;6.93;6.10;;;;;;;;;;5031693;28;20792;-67
2023/08/26 02:58:27;;;;;;;9.65;6.28;;;;;;;;;;5030448;28;20951;-67
2023/08/26 03:00:55;;;;;;;9.27;5.83;;;;;;;;;;5030232;28;20840;-67
2023/08/26 03:03:22;;;;;;;6.20;5.60;;;;;;;;;;5045146;28;20431;-67
2023/08/26 03:05:56;;;;;;;6.35;5.05;;;;;;;;;;5037623;28;21535;-67
2023/08/26 03:08:23;;;;;;;7.50;4.85;;;;;;;;;;5042162;28;20538;-66
2023/08/26 03:11:01;;;;;;;6.57;5.00;;;;;;;;;;5028107;28;21893;-67
2023/08/26 03:13:28;;;;;;;7.13;5.00;;;;;;;;;;5029185;28;20471;-67
2023/08/26 03:15:56;;;;;;;8.00;4.80;;;;;;;;;;5027932;28;20491;-67
2023/08/26 03:18:24;;;;;;;6.97;4.90;;;;;;;;;;5026993;28;20429;-67
2023/08/26 03:20:51;;;;;;;6.05;4.65;;;;;;;;;;5013934;28;21388;-67
2023/08/26 03:23:18;;;;;;;6.72;5.20;;;;;;;;;;5034052;28;20431;-67
2023/08/26 03:25:45;;;;;;;6.85;4.68;;;;;;;;;;5032868;28;20575;-67
2023/08/26 03:28:12;;;;;;;7.53;4.80;;;;;;;;;;5035715;28;20431;-67
2023/08/26 03:30:42;;;;;;;7.32;4.72;;;;;;;;;;5032205;28;21058;-67
2023/08/26 03:33:09;;;;;;;10.10;5.28;;;;;;;;;;5034595;28;20429;-67
2023/08/26 03:35:39;;;;;;;10.27;4.82;;;;;;;;;;5035690;28;20491;-67
2023/08/26 03:38:07;;;;;;;7.82;4.85;;;;;;;;;;5034682;28;20429;-67
2023/08/26 03:40:34;;;;;;;6.93;4.50;;;;;;;;;;5032252;28;20437;-67
2023/08/26 03:43:01;;;;;;;6.43;4.45;;;;;;;;;;5029818;28;20436;-67
2023/08/26 03:45:31;;;;;;;7.43;4.10;;;;;;;;;;5034212;28;20435;-67
2023/08/26 03:48:02;;;;;;;7.88;4.10;;;;;;;;;;5034568;28;20909;-67
2023/08/26 03:50:29;;;;;;;6.45;3.92;;;;;;;;;;5033019;28;21591;-67
2023/08/26 03:52:56;;;;;;;3.72;3.28;;;;;;;;;;5033237;28;20440;-67
2023/08/26 03:55:24;;;;;;;5.20;3.83;;;;;;;;;;5032597;28;20445;-67
2023/08/26 03:57:51;;;;;;;6.90;3.90;;;;;;;;;;5032029;28;20434;-67
2023/08/26 04:00:18;;;;;;;4.90;3.10;;;;;;;;;;5033472;28;20528;-67
2023/08/26 04:02:45;;;;;;;4.72;3.47;;;;;;;;;;5032148;28;20986;-67
2023/08/26 04:05:20;;;;;;;5.90;3.63;;;;;;;;;;5030543;28;20917;-67
2023/08/26 04:07:50;;;;;;;6.47;3.78;;;;;;;;;;5032997;28;21281;-67
2023/08/26 04:10:18;;;;;;;3.83;3.35;;;;;;;;;;5033815;28;20934;-67
2023/08/26 04:12:48;;;;;;;8.30;3.25;;;;;;;;;;5032700;28;21027;-67
2023/08/26 04:15:18;;;;;;;5.32;3.20;;;;;;;;;;5033640;28;20445;-67
2023/08/26 04:17:45;;;;;;;5.40;3.17;;;;;;;;;;5032547;28;20444;-67
2023/08/26 04:20:13;;;;;;;5.93;3.13;;;;;;;;;;5031458;28;20435;-67
2023/08/26 04:22:40;;;;;;;5.28;3.05;;;;;;;;;;5033343;28;20534;-67
2023/08/26 04:25:07;;;;;;;3.60;2.83;;;;;;;;;;5030686;28;20444;-67
2023/08/26 04:27:35;;;;;;;4.47;2.75;;;;;;;;;;5037347;28;20429;-67
2023/08/26 04:30:02;;;;;;;3.45;2.40;;;;;;;;;;5032799;28;20435;-66
2023/08/26 04:32:29;;;;;;;3.00;2.50;;;;;;;;;;5030109;28;21021;-67
2023/08/26 04:34:57;;;;;;;6.00;2.85;;;;;;;;;;5032494;28;20429;-67
2023/08/26 04:37:24;;;;;;;4.55;2.83;;;;;;;;;;5031908;28;20442;-67
2023/08/26 04:39:51;;;;;;;4.43;2.67;;;;;;;;;;5033095;28;20444;-67
2023/08/26 04:42:18;;;;;;;6.13;2.80;;;;;;;;;;5030825;28;20514;-66
2023/08/26 04:44:45;;;;;;;3.95;2.47;;;;;;;;;;5036989;28;20932;-67
2023/08/26 04:47:13;;;;;;;3.42;2.92;;;;;;;;;;5031142;28;20534;-67
2023/08/26 04:49:41;;;;;;;3.20;2.40;;;;;;;;;;5031903;28;20519;-66
2023/08/26 04:52:10;;;;;;;6.93;2.65;;;;;;;;;;5029691;28;20528;-66
2023/08/26 04:54:37;;;;;;;3.20;2.50;;;;;;;;;;5026172;28;20922;-67
2023/08/26 04:57:04;;;;;;;3.70;2.55;;;;;;;;;;5033859;28;20440;-66
2023/08/26 04:59:31;;;;;;;4.75;2.42;;;;;;;;;;5032434;28;20477;-66
2023/08/26 05:01:58;;;;;;;2.97;2.20;;;;;;;;;;5033010;28;20520;-67
2023/08/26 05:04:26;;;;;;;5.22;2.20;;;;;;;;;;5033251;28;20481;-67
2023/08/26 05:06:54;;;;;;;2.80;1.90;;;;;;;;;;5031338;28;20574;-66
2023/08/26 05:09:23;;;;;;;6.97;2.17;;;;;;;;;;5033219;28;20434;-67
2023/08/26 05:11:50;;;;;;;5.10;2.27;;;;;;;;;;5038298;28;20433;-67
2023/08/26 05:14:21;;;;;;;4.60;1.88;;;;;;;;;;5038076;28;20438;-67
2023/08/26 05:16:48;;;;;;;7.13;1.90;;;;;;;;;;5038578;28;20563;-67
2023/08/26 05:19:16;;;;;;;3.72;2.00;;;;;;;;;;5037091;28;20433;-66
2023/08/26 05:21:45;;;;;;;2.50;2.03;;;;;;;;;;5037298;28;20470;-66
2023/08/26 05:24:13;;;;;;;2.73;1.80;;;;;;;;;;5044352;28;20433;-67
2023/08/26 05:26:42;;;;;;;4.63;1.50;;;;;;;;;;5058429;28;20996;-67
2023/08/26 05:29:10;;;;;;;2.20;1.60;;;;;;;;;;5028645;28;20441;-67
2023/08/26 05:31:37;;;;;;;3.05;1.55;;;;;;;;;;5032569;28;20433;-66
2023/08/26 05:34:04;;;;;;;2.80;1.40;;;;;;;;;;5032380;28;20546;-67
2023/08/26 05:36:31;;;;;;;2.05;1.40;;;;;;;;;;5032488;28;20990;-67
2023/08/26 05:38:59;;;;;;;1.50;1.40;;;;;;;;;;5033232;28;20425;-67
2023/08/26 05:41:26;;;;;;;2.03;1.40;;;;;;;;;;5031870;28;20570;-67
2023/08/26 05:43:53;;;;;;;2.60;1.20;;;;;;;;;;5035268;28;20435;-67
2023/08/26 05:46:20;;;;;;;5.47;1.50;;;;;;;;;;5032121;28;20815;-67
2023/08/26 05:48:50;;;;;;;4.20;1.50;;;;;;;;;;5034635;28;21606;-66
2023/08/26 05:51:17;;;;;;;1.90;1.55;;;;;;;;;;5031382;28;20433;-66
2023/08/26 05:53:44;;;;;;;1.55;1.45;;;;;;;;;;5032490;28;20449;-66
2023/08/26 05:56:14;;;;;;;2.58;1.25;;;;;;;;;;5033521;28;21298;-66
2023/08/26 05:58:41;;;;;;;1.45;0.98;;;;;;;;;;5032081;28;20433;-66
2023/08/26 06:01:08;;;;;;;1.90;0.90;;;;;;;;;;5031605;28;20441;-66
2023/08/26 06:03:35;;;;;;;1.90;0.90;;;;;;;;;;5032719;28;20429;-66
2023/08/26 06:06:03;;;;;;;1.30;1.20;;;;;;;;;;5032727;28;20431;-65
2023/08/26 06:08:30;;;;;;;1.10;1.00;;;;;;;;;;5033209;28;20503;-66
2023/08/26 06:10:58;;;;;;;3.70;1.38;;;;;;;;;;5033029;28;20461;-65
2023/08/26 06:13:25;;;;;;;1.35;1.20;;;;;;;;;;5030368;28;20540;-66
2023/08/26 06:15:58;;;;;;;1.60;1.20;;;;;;;;;;5032741;28;20524;-67
2023/08/26 06:18:26;;;;;;;2.20;1.00;;;;;;;;;;5030202;28;20437;-66
2023/08/26 06:20:53;;;;;;;2.03;0.93;;;;;;;;;;5031536;28;20443;-65
2023/08/26 06:23:20;;;;;;;1.75;0.82;;;;;;;;;;5031990;28;20912;-66
2023/08/26 06:25:54;;;;;;;1.90;1.23;;;;;;;;;;5033873;28;20484;-67
2023/08/26 06:28:22;;;;;;;1.35;1.13;;;;;;;;;;5031525;28;20480;-65
2023/08/26 06:30:49;;;;;;;1.63;1.00;;;;;;;;;;5029128;28;21111;-65
2023/08/26 06:33:17;;;;;;;1.17;1.08;;;;;;;;;;5031175;28;20425;-65
2023/08/26 06:35:50;;;;;;;3.70;0.80;;;;;;;;;;5031543;28;20463;-65
2023/08/26 06:38:17;;;;;;;3.00;1.00;;;;;;;;;;5032132;28;20433;-65
2023/08/26 06:40:44;;;;;;;1.10;1.00;;;;;;;;;;5033182;28;20930;-65
2023/08/26 06:43:14;;;;;;;1.25;0.90;;;;;;;;;;5034359;28;20831;-66
2023/08/26 06:45:41;;;;;;;1.38;0.90;;;;;;;;;;5036820;28;21094;-65
2023/08/26 06:48:08;;;;;;;1.57;1.00;;;;;;;;;;5029713;28;20428;-65
2023/08/26 06:50:36;;;;;;;2.30;0.93;;;;;;;;;;5028608;28;20468;-65
2023/08/26 06:53:03;;;;;;;1.35;0.95;;;;;;;;;;5029199;28;20503;-65
2023/08/26 06:55:30;;;;;;;1.52;0.90;;;;;;;;;;5028535;28;20926;-65
2023/08/26 06:58:01;;;;;;;2.17;1.13;;;;;;;;;;5016952;28;20637;-65
2023/08/26 07:00:30;;;;;;;2.53;0.90;;;;;;;;;;5034682;28;20436;-65
2023/08/26 07:02:57;;;;;;;2.15;0.95;;;;;;;;;;5036130;28;20486;-65
2023/08/26 07:05:24;;;;;;;2.50;0.95;;;;;;;;;;5035190;28;20435;-65
2023/08/26 07:07:52;;;;;;;1.58;0.90;;;;;;;;;;5035884;28;20908;-64
2023/08/26 07:10:19;;;;;;;2.50;0.82;;;;;;;;;;5035499;28;20788;-65
2023/08/26 07:12:49;;;;;;;1.98;0.80;;;;;;;;;;5034923;28;20437;-65
2023/08/26 07:15:16;;;;;;;1.42;0.88;;;;;;;;;;5036992;28;21390;-65
2023/08/26 07:17:44;;;;;;;1.70;0.93;;;;;;;;;;5034501;28;20787;-65
2023/08/26 07:20:12;;;;;;;4.47;1.00;;;;;;;;;;5012720;28;20514;-65
2023/08/26 07:22:40;;;;;;;6.00;1.20;;;;;;;;;;5025469;28;20556;-65
2023/08/26 07:25:08;;;;;;;3.00;1.10;;;;;;;;;;5035313;28;20528;-65
2023/08/26 07:27:35;;;;;;;0.73;0.73;;;;;;;;;;5037482;28;20428;-65
2023/08/26 07:30:04;;;;;;;1.65;0.73;;;;;;;;;;5056776;28;20426;-65
2023/08/26 07:32:32;;;;;;;1.05;0.95;;;;;;;;;;5046039;28;20532;-65
2023/08/26 07:35:00;;;;;;;0.98;0.88;;;;;;;;;;5032765;28;20442;-65
2023/08/26 07:37:28;;;;;;;1.75;1.08;;;;;;;;;;5035217;28;20440;-65
2023/08/26 07:39:55;;;;;;;3.13;1.00;;;;;;;;;;5037023;28;20449;-64
2023/08/26 07:42:23;;;;;;;2.05;1.00;;;;;;;;;;5032189;28;21209;-65
2023/08/26 07:44:50;;;;;;;0.88;0.80;;;;;;;;;;5035572;28;20436;-64
2023/08/26 07:47:20;;;;;;;0.75;0.70;;;;;;;;;;5033934;28;20429;-65
2023/08/26 07:49:47;;;;;;;3.40;0.90;;;;;;;;;;5032405;28;20990;-65
2023/08/26 07:52:16;;;;;;;1.15;0.80;;;;;;;;;;5029368;28;20433;-65
2023/08/26 07:54:43;;;;;;;1.75;0.80;;;;;;;;;;5016249;28;20455;-65
2023/08/26 07:57:11;;;;;;;0.77;0.77;;;;;;;;;;5031023;28;20433;-64
2023/08/26 07:59:38;;;;;;;2.72;0.80;;;;;;;;;;5030592;28;20476;-65
2023/08/26 08:02:05;;;;;;;0.93;0.77;;;;;;;;;;5031661;28;21423;-65
2023/08/26 08:04:32;;;;;;;1.83;0.90;;;;;;;;;;5025655;28;22694;-65
2023/08/26 08:07:00;;;;;;;1.60;0.90;;;;;;;;;;5023309;28;20433;-64
2023/08/26 08:09:27;;;;;;;3.05;0.82;;;;;;;;;;5027049;28;20456;-64
2023/08/26 08:11:54;;;;;;;1.20;0.85;;;;;;;;;;5030343;28;20498;-64
2023/08/26 08:14:22;;;;;;;2.65;0.93;;;;;;;;;;5027249;28;20433;-65
2023/08/26 08:16:50;;;;;;;1.70;1.00;;;;;;;;;;5010174;28;21424;-65
2023/08/26 08:19:17;;;;;;;1.92;1.00;;;;;;;;;;5023653;28;20469;-65
2023/08/26 08:21:44;;;;;;;1.90;0.70;;;;;;;;;;5026554;28;21286;-64
2023/08/26 08:24:11;;;;;;;1.63;1.00;;;;;;;;;;5030232;28;21290;-65
2023/08/26 08:26:43;;;;;;;2.75;1.20;;;;;;;;;;5037777;28;20520;-65
2023/08/26 08:29:11;;;;;;;0.70;0.70;;;;;;;;;;5041476;28;21264;-64
2023/08/26 08:31:38;;;;;;;1.55;0.82;;;;;;;;;;5040391;28;20437;-65
2023/08/26 08:34:05;;;;;;;2.70;0.88;;;;;;;;;;5035806;28;20907;-65
2023/08/26 08:36:32;;;;;;;1.75;0.90;;;;;;;;;;5026296;28;20470;-65
2023/08/26 08:38:59;;;;;;;3.58;1.23;;;;;;;;;;5042262;28;20485;-65
2023/08/26 08:41:27;;;;;;;2.38;1.20;;;;;;;;;;5044382;28;20441;-65
2023/08/26 08:43:57;;;;;;;2.90;1.08;;;;;;;;;;5043232;28;20881;-65
2023/08/26 08:46:27;;;;;;;2.30;0.80;;;;;;;;;;5039440;28;20497;-65
2023/08/26 08:48:58;;;;;;;1.85;0.80;;;;;;;;;;5052152;28;21072;-65
2023/08/26 08:51:27;;;;;;;1.40;0.70;;;;;;;;;;5043388;28;20429;-64
2023/08/26 08:53:55;;;;;;;3.08;0.90;;;;;;;;;;5039642;28;20429;-65
2023/08/26 08:56:22;;;;;;;2.90;0.80;;;;;;;;;;5043829;28;20464;-64
2023/08/26 08:58:51;;;;;;;1.30;0.90;;;;;;;;;;5035537;28;20440;-66
2023/08/26 09:01:23;;;;;;;1.00;0.90;;;;;;;;;;5041005;28;20431;-65
2023/08/26 09:03:50;;;;;;;2.80;0.90;;;;;;;;;;5022448;28;20457;-65
2023/08/26 09:06:20;;;;;;;2.03;0.80;;;;;;;;;;5024026;28;20916;-65
2023/08/26 09:08:48;;;;;;;0.80;0.70;;;;;;;;;;5033545;28;20429;-65
2023/08/26 09:11:15;;;;;;;2.10;0.75;;;;;;;;;;5027196;28;20423;-63
2023/08/26 09:13:44;;;;;;;0.93;0.70;;;;;;;;;;5024906;28;20548;-64
2023/08/26 09:16:11;;;;;;;2.15;0.70;;;;;;;;;;5026985;28;20551;-64
2023/08/26 09:18:40;;;;;;;2.50;0.70;;;;;;;;;;5028922;28;21020;-64
2023/08/26 09:21:08;;;;;;;0.73;0.73;;;;;;;;;;5031295;28;21384;-64
2023/08/26 09:23:43;;;;;;;0.73;0.70;;;;;;;;;;5007865;28;20504;-65
2023/08/26 09:26:10;;;;;;;1.85;0.98;;;;;;;;;;5039494;28;20440;-65
2023/08/26 09:28:38;;;;;;;2.70;1.00;;;;;;;;;;5024851;28;20429;-65
2023/08/26 09:31:06;;;;;;;1.00;0.80;;;;;;;;;;5032087;28;20480;-65
2023/08/26 09:33:34;;;;;;;0.70;0.70;;;;;;;;;;5025002;28;21264;-65
2023/08/26 09:36:02;;;;;;;1.05;0.88;;;;;;;;;;5027783;28;20436;-65
2023/08/26 09:38:47;;;;;;;1.40;0.80;;;;;;;;;;5030692;28;20558;-65
2023/08/26 09:41:19;;;;;;;1.57;0.77;;;;;;;;;;5029079;28;20526;-65
2023/08/26 09:43:47;;;;;;;1.38;0.80;;;;;;;;;;5033617;28;20425;-65
2023/08/26 09:46:18;;;;;;;1.30;0.88;;;;;;;;;;5009851;28;20433;-65
2023/08/26 09:48:45;;;;;;;1.15;0.68;;;;;;;;;;5042748;28;20507;-64
2023/08/26 09:51:23;;;;;;;1.05;0.70;;;;;;;;;;5030510;28;20547;-64
2023/08/26 09:53:51;;;;;;;0.80;0.77;;;;;;;;;;5030840;28;20994;-65
2023/08/26 09:56:25;;;;;;;1.60;0.97;;;;;;;;;;5026462;28;21520;-65
2023/08/26 09:58:53;;;;;;;3.53;0.77;;;;;;;;;;5027099;28;20810;-65
2023/08/26 10:01:21;;;;;;;1.13;0.70;;;;;;;;;;5031820;28;20765;-65
2023/08/26 10:04:05;;;;;;;2.47;0.77;;;;;;;;;;5029436;28;20434;-65
2023/08/26 10:06:36;;;;;;;1.50;1.13;;;;;;;;;;5029557;28;20444;-64
2023/08/26 10:09:17;;;;;;;2.23;0.63;;;;;;;;;;5028274;28;20440;-65
2023/08/26 10:11:47;;;;;;;1.80;0.85;;;;;;;;;;5030434;28;20472;-64
2023/08/26 10:14:15;;;;;;;2.00;0.60;;;;;;;;;;5031182;28;20457;-65
2023/08/26 10:16:42;;;;;;;2.10;0.80;;;;;;;;;;5030670;28;20441;-65
2023/08/26 10:19:10;;;;;;;2.15;0.80;;;;;;;;;;5025390;28;20555;-65
2023/08/26 10:21:38;;;;;;;0.70;0.70;;;;;;;;;;5031866;28;21413;-65
2023/08/26 10:24:05;;;;;;;0.97;0.70;;;;;;;;;;5031429;28;22906;-64
2023/08/26 10:26:35;;;;;;;1.40;0.70;;;;;;;;;;5012967;28;20738;-64
2023/08/26 10:29:02;;;;;;;0.80;0.70;;;;;;;;;;5031068;28;20815;-64
2023/08/26 10:31:34;;;;;;;1.60;0.60;;;;;;;;;;5035387;28;20433;-64
2023/08/26 10:34:13;;;;;;;3.10;0.70;;;;;;;;;;5009446;28;20524;-64
2023/08/26 10:36:41;;;;;;;1.00;0.70;;;;;;;;;;5025877;28;20448;-65
2023/08/26 10:39:16;;;;;;;0.60;0.60;;;;;;;;;;5025059;28;20539;-66
2023/08/26 10:42:02;;;;;;;0.85;0.80;;;;;;;;;;5034453;28;20443;-66
2023/08/26 10:44:36;;;;;;;0.90;0.70;;;;;;;;;;5036301;28;20445;-65
2023/08/26 10:47:06;;;;;;;1.30;0.57;;;;;;;;;;5036312;28;20543;-66
2023/08/26 10:49:36;;;;;;;0.60;0.60;;;;;;;;;;5029494;28;20542;-66
2023/08/26 10:52:12;;;;;;;1.38;0.60;;;;;;;;;;5034145;28;20434;-66
2023/08/26 10:54:42;;;;;;;1.88;0.68;;;;;;;;;;5032768;28;20485;-65
2023/08/26 10:57:09;;;;;;;1.65;0.85;;;;;;;;;;5036325;28;21181;-65
2023/08/26 10:59:45;;;;;;;0.65;0.57;;;;;;;;;;5032081;28;21069;-65
2023/08/26 11:02:16;;;;;;;0.70;0.70;;;;;;;;;;5032177;28;20475;-64
2023/08/26 11:04:44;;;;;;;1.10;0.70;;;;;;;;;;5013971;28;21046;-64
2023/08/26 11:07:15;;;;;;;1.60;0.70;;;;;;;;;;5032285;28;20645;-64
2023/08/26 11:09:42;;;;;;;1.77;0.77;;;;;;;;;;5026784;28;20516;-64
2023/08/26 11:12:24;;;;;;;0.80;0.70;;;;;;;;;;5032123;28;20580;-64
2023/08/26 11:15:06;;;;;;;1.75;0.68;;;;;;;;;;5030019;28;20485;-74
2023/08/26 11:17:33;;;;;;;0.70;0.70;;;;;;;;;;5033871;28;20554;-71
2023/08/26 11:20:18;;;;;;;1.00;0.80;;;;;;;;;;5038500;28;20541;-70
2023/08/26 11:22:46;;;;;;;2.07;0.70;;;;;;;;;;5035629;28;20452;-71
2023/08/26 11:25:17;;;;;;;0.70;0.60;;;;;;;;;;5020358;28;21596;-74
2023/08/26 11:27:44;;;;;;;2.75;0.70;;;;;;;;;;5026657;28;20539;-74
2023/08/26 11:30:11;;;;;;;1.50;0.63;;;;;;;;;;5036595;28;20522;-69
2023/08/26 11:32:39;;;;;;;1.27;0.70;;;;;;;;;;5032764;28;20429;-69
2023/08/26 11:35:08;;;;;;;0.70;0.70;;;;;;;;;;5024607;28;21004;-64
2023/08/26 11:37:48;;;;;;;1.75;0.65;;;;;;;;;;5030525;28;21216;-64
2023/08/26 11:40:15;;;;;;;1.00;0.70;;;;;;;;;;5029534;28;20456;-66
2023/08/26 11:42:44;;;;;;;1.60;0.68;;;;;;;;;;5031898;28;20439;-64
2023/08/26 11:45:11;;;;;;;0.90;0.80;;;;;;;;;;5035372;28;20441;-65
2023/08/26 11:47:40;;;;;;;0.75;0.70;;;;;;;;;;5031342;28;20535;-65
2023/08/26 11:50:09;;;;;;;1.30;0.70;;;;;;;;;;5032375;28;21131;-65
2023/08/26 11:52:37;;;;;;;2.15;0.80;;;;;;;;;;5032472;28;20425;-65
2023/08/26 11:55:11;;;;;;;2.28;0.70;;;;;;;;;;5032757;28;20519;-65
2023/08/26 11:57:41;;;;;;;2.10;0.60;;;;;;;;;;5031685;28;20455;-64
2023/08/26 12:00:10;;;;;;;2.00;0.60;;;;;;;;;;5032353;28;20799;-65
2023/08/26 12:02:37;;;;;;;0.60;0.60;;;;;;;;;;5031497;28;20443;-65
2023/08/26 12:05:04;;;;;;;2.58;0.70;;;;;;;;;;5029927;28;20653;-65
2023/08/26 12:07:32;;;;;;;1.20;0.70;;;;;;;;;;5031195;28;20449;-66
2023/08/26 12:10:09;;;;;;;2.60;0.60;;;;;;;;;;5031354;28;20503;-65
2023/08/26 12:12:36;;;;;;;0.70;0.70;;;;;;;;;;5015893;28;20461;-64
2023/08/26 12:15:08;;;;;;;3.63;0.80;;;;;;;;;;5030436;28;21193;-65
2023/08/26 12:17:45;;;;;;;1.27;0.80;;;;;;;;;;5029820;28;20565;-64
2023/08/26 12:20:42;;;;;;;1.60;0.70;;;;;;;;;;5034018;28;20445;-65
2023/08/26 12:23:10;;;;;;;1.05;0.75;;;;;;;;;;5015186;28;20429;-65
2023/08/26 12:25:38;;;;;;;1.52;0.60;;;;;;;;;;5013350;28;20429;-65
2023/08/26 12:28:09;;;;;;;1.80;0.60;;;;;;;;;;5027419;28;20434;-65
2023/08/26 12:30:40;;;;;;;1.42;0.80;;;;;;;;;;5033027;28;20555;-65
2023/08/26 12:33:08;;;;;;;1.23;0.70;;;;;;;;;;5030408;28;20444;-65
2023/08/26 12:35:51;;;;;;;1.75;0.65;;;;;;;;;;5042760;28;20649;-64
2023/08/26 12:38:18;;;;;;;1.00;0.77;;;;;;;;;;5032079;28;20433;-65
2023/08/26 12:40:47;;;;;;;0.73;0.70;;;;;;;;;;5033655;28;20437;-65
2023/08/26 12:43:18;;;;;;;0.88;0.85;;;;;;;;;;5035064;28;20425;-65
2023/08/26 12:45:48;;;;;;;0.60;0.60;;;;;;;;;;5033323;28;21154;-64
2023/08/26 12:48:15;;;;;;;0.90;0.77;;;;;;;;;;5015394;28;20437;-64
2023/08/26 12:50:53;;;;;;;1.55;0.70;;;;;;;;;;5032153;28;20433;-65
2023/08/26 12:53:21;;;;;;;1.00;0.70;;;;;;;;;;5032081;28;22878;-65
2023/08/26 12:55:48;;;;;;;1.95;0.68;;;;;;;;;;5031761;28;20433;-64
2023/08/26 12:58:22;;;;;;;0.60;0.60;;;;;;;;;;5031745;28;20437;-65
2023/08/26 13:00:49;;;;;;;1.27;0.73;;;;;;;;;;5030476;28;20435;-64
2023/08/26 13:03:16;;;;;;;1.08;0.70;;;;;;;;;;5029578;28;20498;-65
2023/08/26 13:05:48;;;;;;;1.80;0.70;;;;;;;;;;5032932;28;20436;-65
2023/08/26 13:08:16;;;;;;;0.82;0.70;;;;;;;;;;5014028;28;20436;-64
2023/08/26 13:10:43;;;;;;;2.20;0.60;;;;;;;;;;5033225;28;20435;-64
2023/08/26 13:13:10;;;;;;;1.65;0.70;;;;;;;;;;5030288;28;20438;-64
2023/08/26 13:15:42;;;;;;;0.70;0.70;;;;;;;;;;5029655;28;20433;-64
2023/08/26 13:18:09;;;;;;;0.57;0.57;;;;;;;;;;5029414;28;20521;-65
2023/08/26 13:20:40;;;;;;;1.00;0.68;;;;;;;;;;5032165;28;21115;-65
2023/08/26 13:23:09;;;;;;;1.73;0.70;;;;;;;;;;5028981;28;20438;-65
2023/08/26 13:25:37;;;;;;;0.77;0.77;;;;;;;;;;5029789;28;21172;-65
2023/08/26 13:28:05;;;;;;;1.20;1.10;;;;;;;;;;5029878;28;20494;-66
2023/08/26 13:30:32;;;;;;;0.85;0.80;;;;;;;;;;5030094;28;20438;-65
2023/08/26 13:33:14;;;;;;;1.30;0.70;;;;;;;;;;5032529;28;20437;-65
2023/08/26 13:35:44;;;;;;;2.67;0.83;;;;;;;;;;5029461;28;20429;-66
2023/08/26 13:38:11;;;;;;;1.67;0.80;;;;;;;;;;5028936;28;20519;-65
2023/08/26 13:40:38;;;;;;;0.90;0.70;;;;;;;;;;5022250;28;21015;-65
2023/08/26 13:43:05;;;;;;;1.50;0.90;;;;;;;;;;5030038;28;20563;-65
2023/08/26 13:45:33;;;;;;;2.70;0.70;;;;;;;;;;5034853;28;21095;-65
2023/08/26 13:48:00;;;;;;;1.15;0.80;;;;;;;;;;5030744;28;20478;-65
2023/08/26 13:50:30;;;;;;;0.98;0.82;;;;;;;;;;5030392;28;20425;-65
2023/08/26 13:52:57;;;;;;;2.53;0.80;;;;;;;;;;5029486;28;21409;-65
2023/08/26 13:55:24;;;;;;;1.15;0.80;;;;;;;;;;5030849;28;20544;-65
2023/08/26 13:57:54;;;;;;;1.10;0.70;;;;;;;;;;5032578;28;20588;-65
2023/08/26 14:00:22;;;;;;;1.02;0.80;;;;;;;;;;5043021;28;20810;-65
2023/08/26 14:02:50;;;;;;;2.72;0.90;;;;;;;;;;5048097;28;21099;-64
2023/08/26 14:05:17;;;;;;;1.02;0.90;;;;;;;;;;5053396;28;20476;-65
2023/08/26 14:07:44;;;;;;;1.52;0.90;;;;;;;;;;5053442;28;20431;-64
2023/08/26 14:10:12;;;;;;;0.95;0.82;;;;;;;;;;5059994;28;20506;-65
2023/08/26 14:12:39;;;;;;;2.08;0.80;;;;;;;;;;5055568;28;20432;-65
2023/08/26 14:15:08;;;;;;;0.70;0.70;;;;;;;;;;5066154;28;20423;-65
2023/08/26 14:17:35;;;;;;;1.60;0.90;;;;;;;;;;5053864;28;20433;-65
2023/08/26 14:20:03;;;;;;;1.00;1.00;;;;;;;;;;5056792;28;20429;-65
2023/08/26 14:22:30;;;;;;;5.75;1.30;;;;;;;;;;5041918;28;20428;-65
2023/08/26 14:24:58;;;;;;;1.60;0.90;;;;;;;;;;5050374;28;21140;-65
2023/08/26 14:27:25;;;;;;;1.98;0.90;;;;;;;;;;5043690;28;20974;-65
2023/08/26 14:29:52;;;;;;;2.97;0.88;;;;;;;;;;5048173;28;20436;-65
2023/08/26 14:32:19;;;;;;;1.70;1.08;;;;;;;;;;5054396;28;20508;-65
2023/08/26 14:34:49;;;;;;;1.10;1.00;;;;;;;;;;5046414;28;20425;-65
2023/08/26 14:37:16;;;;;;;1.70;1.02;;;;;;;;;;5059011;28;20496;-64
2023/08/26 14:39:43;;;;;;;1.20;1.00;;;;;;;;;;5047344;28;20440;-66
2023/08/26 14:42:10;;;;;;;1.60;1.10;;;;;;;;;;5051264;28;20433;-65
2023/08/26 14:44:38;;;;;;;1.83;1.00;;;;;;;;;;5047683;28;21036;-65
2023/08/26 14:47:05;;;;;;;1.05;1.00;;;;;;;;;;5049583;28;20437;-65
2023/08/26 14:49:34;;;;;;;1.52;1.10;;;;;;;;;;5060582;28;20507;-63
2023/08/26 14:52:02;;;;;;;1.23;1.03;;;;;;;;;;5052234;28;20468;-66